createdAt,value
2023-03-21T00:01:51.522Z,96.18
2023-03-21T00:04:18.212Z,90.53
2023-03-21T00:06:44.824Z,92.10
2023-03-21T00:09:12.304Z,95.03
2023-03-21T00:11:38.812Z,96.75
2023-03-21T00:14:05.853Z,95.50
2023-03-21T00:16:36.894Z,101.88
2023-03-21T00:22:05.459Z,104.35
2023-03-21T00:24:18.914Z,98.10
2023-03-21T00:26:46.172Z,102.40
2023-03-21T00:29:13.014Z,99.95
2023-03-21T00:31:39.689Z,95.65
2023-03-21T00:34:06.544Z,94.35
2023-03-21T00:36:33.225Z,90.00
2023-03-21T00:39:00.858Z,81.28
2023-03-21T00:41:41.607Z,98.85
2023-03-21T00:44:11.643Z,76.33
2023-03-21T00:46:57.399Z,98.15
2023-03-21T00:49:24.973Z,96.10
2023-03-21T00:51:52.013Z,98.65
2023-03-21T00:54:18.842Z,107.50
2023-03-21T00:56:45.408Z,107.32
2023-03-21T00:59:11.995Z,108.60
2023-03-21T01:01:38.630Z,110.20
2023-03-21T01:04:10.824Z,108.18
2023-03-21T01:06:40.891Z,106.13
2023-03-21T01:09:17.204Z,128.65
2023-03-21T01:11:45.155Z,138.30
2023-03-21T01:14:22.999Z,116.30
2023-03-21T01:16:53.734Z,117.57
2023-03-21T01:19:29.138Z,106.25
2023-03-21T01:21:58.252Z,112.40
2023-03-21T01:24:25.437Z,106.82
2023-03-21T01:26:52.030Z,119.93
2023-03-21T01:29:18.612Z,116.35
2023-03-21T01:31:45.475Z,120.30
2023-03-21T01:34:12.468Z,110.95
2023-03-21T01:36:39.520Z,116.10
2023-03-21T01:39:09.989Z,113.50
2023-03-21T01:41:43.434Z,106.22
2023-03-21T01:44:22.456Z,108.85
2023-03-21T01:47:11.479Z,107.93
2023-03-21T01:50:03.723Z,134.13
2023-03-21T01:52:46.672Z,116.40
2023-03-21T01:55:18.161Z,173.65
2023-03-21T01:58:05.876Z,103.63
2023-03-21T02:00:52.343Z,101.65
2023-03-21T02:03:35.802Z,117.95
2023-03-21T02:07:04.296Z,109.07
2023-03-21T02:09:49.118Z,106.18
2023-03-21T02:12:19.905Z,191.48
2023-03-21T02:14:49.218Z,105.75
2023-03-21T02:17:43.136Z,110.55
2023-03-21T02:20:40.813Z,117.30
2023-03-21T02:23:27.765Z,103.63
2023-03-21T02:26:41.174Z,114.10
2023-03-21T02:29:46.153Z,115.28
2023-03-21T02:32:36.976Z,126.80
2023-03-21T02:35:37.123Z,120.53
2023-03-21T02:38:18.386Z,121.47
2023-03-21T02:41:19.088Z,121.07
2023-03-21T02:46:43.828Z,118.82
2023-03-21T02:49:34.573Z,116.00
2023-03-21T02:52:14.557Z,118.15
2023-03-21T02:54:48.985Z,110.00
2023-03-21T02:57:21.990Z,120.63
2023-03-21T02:59:55.718Z,118.78
2023-03-21T03:02:32.126Z,125.18
2023-03-21T03:05:00.629Z,124.72
2023-03-21T03:08:09.607Z,117.80
2023-03-21T03:10:54.531Z,113.45
2023-03-21T03:13:26.838Z,122.55
2023-03-21T03:16:36.746Z,111.35
2023-03-21T03:19:08.637Z,108.18
2023-03-21T03:21:42.189Z,109.57
2023-03-21T03:24:20.110Z,110.85
2023-03-21T03:26:55.899Z,101.20
2023-03-21T03:29:27.058Z,102.82
2023-03-21T03:32:01.818Z,106.35
2023-03-21T03:34:39.493Z,102.68
2023-03-21T03:37:10.870Z,106.32
2023-03-21T03:39:47.224Z,93.50
2023-03-21T03:42:28.101Z,112.13
2023-03-21T03:45:06.689Z,111.60
2023-03-21T03:47:41.942Z,107.90
2023-03-21T03:50:41.427Z,99.20
2023-03-21T03:53:36.997Z,101.55
2023-03-21T03:56:07.010Z,100.07
2023-03-21T03:58:44.977Z,94.82
2023-03-21T04:01:14.633Z,99.18
2023-03-21T04:03:50.611Z,101.88
2023-03-21T04:06:22.058Z,94.07
2023-03-21T04:08:50.997Z,95.90
2023-03-21T04:11:20.390Z,99.93
2023-03-21T04:13:51.965Z,98.93
2023-03-21T04:16:23.484Z,92.67
2023-03-21T04:18:52.411Z,102.22
2023-03-21T04:21:19.699Z,94.80
2023-03-21T04:23:46.271Z,95.60
2023-03-21T04:26:12.898Z,85.13
2023-03-21T04:28:47.397Z,86.60
2023-03-21T04:31:35.906Z,82.18
2023-03-21T04:34:09.817Z,87.65
2023-03-21T04:36:39.113Z,82.57
2023-03-21T04:39:12.496Z,82.43
2023-03-21T04:41:42.004Z,86.78
2023-03-21T04:44:09.526Z,112.38
2023-03-21T04:46:36.880Z,93.95
2023-03-21T04:49:04.867Z,97.30
2023-03-21T04:51:31.409Z,119.03
2023-03-21T04:53:58.161Z,106.68
2023-03-21T04:56:32.677Z,102.85
2023-03-21T04:59:07.901Z,103.90
2023-03-21T05:01:34.604Z,103.30
2023-03-21T05:04:02.474Z,100.90
2023-03-21T05:06:32.029Z,94.70
2023-03-21T05:09:00.204Z,100.20
2023-03-21T05:11:30.770Z,105.22
2023-03-21T05:13:59.222Z,87.22
2023-03-21T05:16:30.390Z,94.25
2023-03-21T05:19:04.994Z,100.10
2023-03-21T05:21:42.048Z,142.10
2023-03-21T05:24:20.040Z,77.93
2023-03-21T05:26:50.928Z,81.63
2023-03-21T05:29:20.030Z,81.43
2023-03-21T05:31:57.152Z,78.78
2023-03-21T05:34:25.422Z,80.70
2023-03-21T05:36:51.998Z,90.00
2023-03-21T05:39:19.143Z,86.95
2023-03-21T05:41:57.323Z,96.07
2023-03-21T05:44:24.947Z,85.95
2023-03-21T05:46:52.056Z,123.20
2023-03-21T05:49:23.044Z,137.30
2023-03-21T05:51:54.100Z,112.00
2023-03-21T05:54:20.794Z,126.28
2023-03-21T05:56:49.089Z,85.65
2023-03-21T05:59:25.734Z,91.45
2023-03-21T06:01:57.286Z,120.55
2023-03-21T06:04:24.070Z,88.30
2023-03-21T06:06:52.134Z,77.70
2023-03-21T06:09:19.992Z,86.05
2023-03-21T06:11:55.456Z,89.95
2023-03-21T06:14:29.948Z,102.63
2023-03-21T06:17:17.376Z,87.85
2023-03-21T06:19:50.682Z,79.68
2023-03-21T06:22:43.453Z,68.60
2023-03-21T06:25:11.164Z,116.95
2023-03-21T06:27:38.062Z,80.55
2023-03-21T06:30:07.363Z,64.55
2023-03-21T06:32:40.568Z,63.88
2023-03-21T06:35:11.604Z,69.50
2023-03-21T06:37:38.524Z,69.10
2023-03-21T06:40:07.742Z,60.35
2023-03-21T06:42:34.530Z,64.82
2023-03-21T06:45:08.447Z,63.22
2023-03-21T06:47:35.199Z,69.80
2023-03-21T06:50:06.987Z,68.90
2023-03-21T06:52:39.707Z,74.80
2023-03-21T06:55:07.011Z,69.57
2023-03-21T06:57:34.764Z,70.57
2023-03-21T07:00:02.121Z,71.53
2023-03-21T07:02:29.126Z,73.07
2023-03-21T07:05:13.001Z,61.92
2023-03-21T07:07:40.636Z,64.55
2023-03-21T07:10:08.722Z,56.90
2023-03-21T07:12:44.412Z,59.50
2023-03-21T07:15:19.420Z,46.83
2023-03-21T07:17:46.572Z,53.40
2023-03-21T07:20:14.052Z,36.17
2023-03-21T07:22:41.348Z,38.53
2023-03-21T07:25:08.866Z,37.90
2023-03-21T07:27:41.211Z,46.42
2023-03-21T07:30:10.408Z,46.72
2023-03-21T07:32:37.909Z,50.42
2023-03-21T07:35:10.888Z,41.45
2023-03-21T07:37:38.235Z,38.85
2023-03-21T07:40:10.147Z,35.90
2023-03-21T07:42:39.226Z,38.15
2023-03-21T07:45:07.738Z,36.33
2023-03-21T07:47:35.391Z,32.53
2023-03-21T07:50:04.521Z,33.13
2023-03-21T07:52:32.238Z,33.55
2023-03-21T07:54:59.048Z,33.42
2023-03-21T07:57:26.107Z,36.42
2023-03-21T07:59:52.758Z,35.55
2023-03-21T08:02:19.427Z,37.88
2023-03-21T08:04:46.705Z,36.17
2023-03-21T08:07:13.731Z,37.33
2023-03-21T08:09:40.443Z,38.63
2023-03-21T08:12:08.520Z,33.30
2023-03-21T08:14:36.640Z,38.28
2023-03-21T08:17:07.197Z,35.42
2023-03-21T08:19:34.263Z,40.03
2023-03-21T08:22:01.253Z,40.25
2023-03-21T08:24:31.913Z,32.75
2023-03-21T08:26:58.516Z,35.47
2023-03-21T08:29:25.131Z,36.72
2023-03-21T08:31:51.967Z,30.23
2023-03-21T08:34:19.494Z,36.17
2023-03-21T08:36:47.098Z,35.10
2023-03-21T08:39:13.917Z,36.88
2023-03-21T08:41:40.582Z,34.75
2023-03-21T08:44:07.172Z,37.58
2023-03-21T08:46:33.834Z,37.92
2023-03-21T08:49:00.596Z,32.30
2023-03-21T08:51:27.644Z,40.28
2023-03-21T08:53:54.284Z,39.00
2023-03-21T08:56:20.992Z,36.05
2023-03-21T08:58:47.532Z,34.08
2023-03-21T09:01:15.736Z,36.78
2023-03-21T09:03:43.523Z,37.67
2023-03-21T09:06:13.820Z,37.33
2023-03-21T09:08:43.239Z,34.28
2023-03-21T09:11:10.313Z,42.92
2023-03-21T09:13:39.694Z,39.65
2023-03-21T09:16:06.747Z,35.88
2023-03-21T09:18:45.328Z,36.33
2023-03-21T09:21:14.724Z,34.00
2023-03-21T09:23:42.397Z,37.70
2023-03-21T09:26:09.789Z,34.03
2023-03-21T09:28:38.929Z,37.80
2023-03-21T09:31:06.534Z,38.30
2023-03-21T09:33:35.321Z,37.55
2023-03-21T09:36:02.077Z,43.88
2023-03-21T09:38:30.508Z,44.70
2023-03-21T09:41:18.719Z,49.33
2023-03-21T09:44:03.594Z,47.45
2023-03-21T09:46:45.659Z,48.80
2023-03-21T09:49:35.338Z,48.25
2023-03-21T09:52:12.413Z,50.92
2023-03-21T09:54:44.688Z,46.75
2023-03-21T09:57:36.480Z,51.67
2023-03-21T10:00:14.389Z,57.03
2023-03-21T10:02:49.546Z,53.30
2023-03-21T10:05:28.234Z,49.10
2023-03-21T10:07:57.918Z,47.90
2023-03-21T10:10:32.327Z,57.08
2023-03-21T10:12:59.859Z,56.67
2023-03-21T10:15:27.547Z,65.70
2023-03-21T10:18:01.464Z,59.47
2023-03-21T10:20:33.931Z,60.92
2023-03-21T10:23:05.385Z,56.45
2023-03-21T10:25:42.585Z,70.82
2023-03-21T10:28:16.903Z,60.13
2023-03-21T10:30:48.973Z,61.30
2023-03-21T10:33:20.614Z,60.75
2023-03-21T10:35:57.048Z,50.20
2023-03-21T10:38:26.659Z,56.35
2023-03-21T10:40:53.949Z,48.88
2023-03-21T10:43:26.183Z,51.22
2023-03-21T10:45:57.697Z,55.42
2023-03-21T10:48:24.898Z,47.75
2023-03-21T10:50:57.897Z,51.97
2023-03-21T10:53:35.215Z,47.65
2023-03-21T10:56:07.186Z,45.88
2023-03-21T10:58:41.125Z,56.67
2023-03-21T11:01:14.784Z,47.88
2023-03-21T11:03:46.877Z,50.63
2023-03-21T11:09:17.786Z,54.65
2023-03-21T11:11:54.506Z,56.17
2023-03-21T11:14:27.906Z,61.97
2023-03-21T11:16:54.589Z,57.42
2023-03-21T11:19:36.068Z,53.10
2023-03-21T11:22:08.008Z,52.25
2023-03-21T11:24:36.140Z,55.20
2023-03-21T11:27:07.641Z,60.65
2023-03-21T11:29:38.908Z,49.65
2023-03-21T11:32:16.965Z,52.47
2023-03-21T11:35:05.911Z,52.55
2023-03-21T11:37:37.634Z,54.35
2023-03-21T11:40:18.081Z,66.10
2023-03-21T11:42:48.130Z,61.10
2023-03-21T11:45:16.332Z,60.72
2023-03-21T11:47:43.575Z,58.80
2023-03-21T11:50:18.263Z,66.07
2023-03-21T11:52:56.932Z,67.90
2023-03-21T11:55:34.917Z,69.00
2023-03-21T11:58:22.442Z,76.18
2023-03-21T12:01:03.894Z,65.20
2023-03-21T12:03:57.426Z,64.90
2023-03-21T12:06:48.328Z,74.18
2023-03-21T12:09:34.516Z,78.88
2023-03-21T12:12:10.431Z,62.67
2023-03-21T12:14:59.014Z,67.93
2023-03-21T12:17:50.559Z,70.20
2023-03-21T12:20:46.644Z,63.40
2023-03-21T12:23:33.402Z,61.95
2023-03-21T12:26:03.002Z,58.35
2023-03-21T12:28:56.490Z,57.63
2023-03-21T12:31:42.275Z,61.00
2023-03-21T12:34:25.013Z,56.47
2023-03-21T12:37:03.551Z,55.60
2023-03-21T12:39:36.870Z,59.50
2023-03-21T12:42:24.637Z,50.05
2023-03-21T12:45:00.643Z,61.88
2023-03-21T12:47:30.870Z,63.60
2023-03-21T12:50:03.555Z,72.35
2023-03-21T12:55:01.713Z,69.40
2023-03-21T12:57:56.489Z,76.35
2023-03-21T13:00:36.098Z,66.95
2023-03-21T13:03:19.557Z,60.28
2023-03-21T13:06:07.139Z,70.85
2023-03-21T13:08:38.644Z,56.08
2023-03-21T13:11:07.523Z,66.45
2023-03-21T13:13:40.024Z,58.65
2023-03-21T13:16:06.999Z,62.25
2023-03-21T13:18:41.622Z,54.90
2023-03-21T13:21:19.383Z,61.05
2023-03-21T13:24:03.393Z,57.95
2023-03-21T13:26:38.151Z,59.20
2023-03-21T13:29:25.635Z,59.63
2023-03-21T13:31:57.400Z,65.90
2023-03-21T13:34:25.514Z,60.50
2023-03-21T13:36:52.874Z,53.00
2023-03-21T13:39:25.404Z,46.00
2023-03-21T13:41:53.206Z,37.88
2023-03-21T13:45:00.710Z,41.67
2023-03-21T13:47:36.327Z,39.65
2023-03-21T13:50:18.208Z,36.80
2023-03-21T13:53:03.632Z,42.58
2023-03-21T13:55:41.631Z,47.55
2023-03-21T13:58:32.826Z,50.30
2023-03-21T14:01:17.698Z,58.33
2023-03-21T14:03:47.095Z,56.50
2023-03-21T14:06:15.551Z,51.00
2023-03-21T14:08:46.263Z,52.03
2023-03-21T14:11:18.476Z,45.83
2023-03-21T14:16:19.501Z,52.13
2023-03-21T14:18:54.524Z,49.33
2023-03-21T14:21:34.809Z,53.00
2023-03-21T14:24:13.444Z,58.80
2023-03-21T14:27:01.856Z,63.25
2023-03-21T14:29:34.342Z,63.13
2023-03-21T14:32:02.708Z,60.40
2023-03-21T14:34:33.505Z,56.80
2023-03-21T14:37:01.065Z,56.97
2023-03-21T14:39:33.140Z,59.10
2023-03-21T14:42:08.334Z,62.92
2023-03-21T14:44:53.523Z,52.55
2023-03-21T14:47:27.760Z,50.70
2023-03-21T14:49:56.339Z,50.35
2023-03-21T14:52:34.580Z,44.47
2023-03-21T14:55:05.811Z,44.03
2023-03-21T14:57:33.389Z,39.30
2023-03-21T15:00:10.605Z,37.47
2023-03-21T15:02:39.992Z,36.90
2023-03-21T15:05:18.677Z,43.50
2023-03-21T15:07:54.163Z,45.08
2023-03-21T15:10:21.196Z,43.58
2023-03-21T15:12:52.301Z,40.40
2023-03-21T15:15:19.778Z,36.77
2023-03-21T15:17:47.309Z,41.10
2023-03-21T15:20:17.484Z,44.85
2023-03-21T15:22:55.340Z,38.80
2023-03-21T15:25:34.840Z,36.92
2023-03-21T15:28:03.622Z,43.25
2023-03-21T15:30:32.975Z,42.40
2023-03-21T15:33:07.808Z,45.33
2023-03-21T15:35:39.946Z,36.83
2023-03-21T15:38:07.405Z,41.67
2023-03-21T15:40:35.233Z,39.72
2023-03-21T15:43:06.498Z,41.45
2023-03-21T15:45:35.312Z,43.00
2023-03-21T15:48:09.115Z,44.65
2023-03-21T15:50:39.913Z,45.13
2023-03-21T15:53:17.149Z,51.38
2023-03-21T15:55:50.128Z,50.47
2023-03-21T15:58:26.339Z,59.88
2023-03-21T16:00:55.733Z,55.03
2023-03-21T16:03:30.313Z,53.63
2023-03-21T16:06:19.863Z,54.15
2023-03-21T16:08:52.446Z,42.97
2023-03-21T16:11:23.395Z,44.00
2023-03-21T16:13:51.562Z,45.92
2023-03-21T16:16:26.349Z,50.40
2023-03-21T16:18:54.825Z,56.67
2023-03-21T16:21:24.322Z,49.22
2023-03-21T16:23:51.919Z,51.28
2023-03-21T16:26:24.766Z,50.53
2023-03-21T16:28:53.031Z,51.00
2023-03-21T16:31:22.770Z,49.40
2023-03-21T16:33:51.173Z,52.92
2023-03-21T16:36:20.941Z,48.90
2023-03-21T16:38:55.507Z,52.85
2023-03-21T16:41:25.375Z,59.10
2023-03-21T16:43:53.232Z,68.38
2023-03-21T16:46:22.209Z,83.60
2023-03-21T16:48:51.697Z,90.57
2023-03-21T16:51:21.651Z,67.22
2023-03-21T16:53:49.305Z,72.13
2023-03-21T16:56:17.754Z,53.50
2023-03-21T16:58:44.560Z,51.33
2023-03-21T17:01:14.642Z,59.22
2023-03-21T17:03:41.572Z,63.60
2023-03-21T17:06:13.626Z,80.15
2023-03-21T17:08:40.579Z,75.53
2023-03-21T17:11:10.700Z,77.70
2023-03-21T17:13:40.226Z,67.75
2023-03-21T17:16:07.267Z,76.85
2023-03-21T17:18:33.808Z,65.22
2023-03-21T17:21:00.685Z,88.65
2023-03-21T17:23:27.249Z,247.23
2023-03-21T17:25:54.775Z,243.13
2023-03-21T17:28:21.360Z,275.00
2023-03-21T17:30:50.318Z,193.32
2023-03-21T17:33:16.980Z,274.45
2023-03-21T17:35:43.718Z,372.45
2023-03-21T17:38:16.723Z,402.33
2023-03-21T17:40:43.455Z,703.45
2023-03-21T17:43:17.235Z,333.08
2023-03-21T17:45:43.959Z,205.55
2023-03-21T17:48:11.112Z,149.38
2023-03-21T17:50:39.268Z,189.70
2023-03-21T17:53:08.657Z,170.57
2023-03-21T17:55:35.761Z,108.22
2023-03-21T17:58:03.628Z,109.82
2023-03-21T18:00:32.665Z,95.07
2023-03-21T18:02:59.208Z,79.13
2023-03-21T18:05:27.310Z,77.15
2023-03-21T18:08:11.900Z,64.40
2023-03-21T18:10:40.895Z,64.70
2023-03-21T18:13:08.002Z,70.40
2023-03-21T18:15:36.006Z,72.05
2023-03-21T18:18:04.629Z,153.90
2023-03-21T18:23:19.143Z,107.13
2023-03-21T18:25:45.994Z,94.80
2023-03-21T18:28:13.138Z,93.68
2023-03-21T18:31:05.269Z,86.10
2023-03-21T18:33:28.512Z,84.28
2023-03-21T18:35:59.312Z,86.55
2023-03-21T18:38:27.774Z,83.87
2023-03-21T18:40:55.775Z,81.25
2023-03-21T18:46:09.502Z,90.53
2023-03-21T18:48:36.615Z,83.10
2023-03-21T18:51:06.370Z,161.27
2023-03-21T18:53:33.036Z,323.80
2023-03-21T18:55:59.621Z,290.10
2023-03-21T18:58:27.801Z,198.98
2023-03-21T19:00:54.715Z,184.98
2023-03-21T19:03:35.256Z,160.38
2023-03-21T19:06:05.844Z,191.00
2023-03-21T19:08:34.751Z,176.02
2023-03-21T19:11:06.038Z,151.73
2023-03-21T19:13:34.054Z,112.38
2023-03-21T19:16:02.553Z,111.28
2023-03-21T19:18:53.094Z,100.57
2023-03-21T19:21:19.264Z,91.97
2023-03-21T19:26:32.787Z,93.20
2023-03-21T19:28:59.434Z,95.57
2023-03-21T19:31:26.770Z,91.45
2023-03-21T19:33:53.375Z,95.03
2023-03-21T19:36:22.863Z,97.90
2023-03-21T19:38:50.386Z,144.60
2023-03-21T19:41:18.234Z,185.15
2023-03-21T19:43:54.248Z,179.63
2023-03-21T19:46:25.307Z,156.82
2023-03-21T19:48:56.267Z,137.57
2023-03-21T19:51:28.732Z,144.23
2023-03-21T19:53:57.733Z,284.88
2023-03-21T19:56:27.059Z,308.55
2023-03-21T19:58:55.527Z,393.85
2023-03-21T20:01:22.958Z,357.08
2023-03-21T20:03:49.725Z,276.75
2023-03-21T20:06:16.730Z,335.52
2023-03-21T20:09:21.441Z,399.35
2023-03-21T20:11:30.350Z,268.83
2023-03-21T20:13:59.920Z,234.75
2023-03-21T20:16:34.248Z,236.05
2023-03-21T20:19:03.662Z,225.18
2023-03-21T20:21:44.427Z,227.85
2023-03-21T20:24:16.482Z,222.60
2023-03-21T20:26:44.977Z,210.18
2023-03-21T20:30:00.200Z,281.08
2023-03-21T20:31:58.238Z,305.90
2023-03-21T20:34:26.115Z,295.63
2023-03-21T20:36:53.452Z,284.45
2023-03-21T20:39:20.206Z,253.15
2023-03-21T20:41:47.514Z,235.15
2023-03-21T20:44:47.984Z,224.10
2023-03-21T20:47:00.808Z,154.93
2023-03-21T20:49:28.497Z,157.15
2023-03-21T20:54:43.461Z,152.73
2023-03-21T20:57:10.094Z,160.80
2023-03-21T20:59:39.965Z,157.85
2023-03-21T21:02:06.672Z,165.85
2023-03-21T21:05:12.255Z,254.20
2023-03-21T21:07:22.067Z,274.25
2023-03-21T21:09:49.954Z,224.98
2023-03-21T21:12:19.435Z,182.93
2023-03-21T21:14:47.802Z,275.15
2023-03-21T21:17:40.346Z,179.10
2023-03-21T21:20:31.019Z,184.20
2023-03-21T21:23:00.241Z,163.32
2023-03-21T21:25:28.939Z,180.93
2023-03-21T21:27:56.067Z,172.40
2023-03-21T21:30:22.788Z,173.07
2023-03-21T21:32:49.744Z,207.73
2023-03-21T21:35:17.947Z,201.68
2023-03-21T21:37:44.835Z,203.23
2023-03-21T21:40:20.375Z,180.82
2023-03-21T21:42:47.662Z,168.88
2023-03-21T21:45:16.093Z,216.85
2023-03-21T21:47:45.142Z,231.73
2023-03-21T21:50:12.110Z,171.85
2023-03-21T21:52:38.777Z,174.05
2023-03-21T21:55:06.444Z,158.60
2023-03-21T21:57:34.413Z,179.68
2023-03-21T22:00:06.731Z,230.57
2023-03-21T22:02:38.580Z,260.30
2023-03-21T22:05:05.586Z,241.15
2023-03-21T22:07:32.307Z,207.07
2023-03-21T22:09:59.580Z,245.27
2023-03-21T22:12:26.398Z,211.90
2023-03-21T22:14:53.051Z,174.25
2023-03-21T22:17:19.683Z,152.95
2023-03-21T22:20:02.626Z,135.18
2023-03-21T22:22:31.877Z,193.80
2023-03-21T22:24:58.440Z,246.40
2023-03-21T22:27:25.350Z,385.38
2023-03-21T22:29:51.916Z,157.35
2023-03-21T22:32:19.671Z,120.60
2023-03-21T22:34:46.444Z,127.25
2023-03-21T22:37:13.198Z,145.32
2023-03-21T22:39:39.826Z,143.63
2023-03-21T22:42:06.480Z,108.97
2023-03-21T22:44:36.899Z,111.55
2023-03-21T22:47:06.206Z,121.93
2023-03-21T22:49:32.992Z,117.60
2023-03-21T22:52:00.843Z,133.02
2023-03-21T22:54:27.608Z,130.77
2023-03-21T22:56:54.301Z,145.40
2023-03-21T22:59:21.161Z,151.52
2023-03-21T23:01:47.948Z,145.45
2023-03-21T23:04:15.554Z,173.82
2023-03-21T23:06:42.800Z,161.57
2023-03-21T23:09:09.764Z,211.45
2023-03-21T23:11:37.741Z,478.88
2023-03-21T23:14:08.093Z,294.23
2023-03-21T23:16:38.162Z,230.55
2023-03-21T23:19:05.142Z,192.00
2023-03-21T23:21:34.437Z,181.48
2023-03-21T23:24:01.191Z,352.58
2023-03-21T23:26:28.135Z,396.98
2023-03-21T23:28:54.811Z,219.77
2023-03-21T23:31:23.993Z,165.25
2023-03-21T23:33:51.185Z,156.93
2023-03-21T23:36:19.155Z,157.18
2023-03-21T23:38:46.089Z,149.90
2023-03-21T23:41:16.227Z,169.77
2023-03-21T23:43:43.678Z,153.85
2023-03-21T23:46:12.683Z,171.30
2023-03-21T23:48:44.018Z,174.20
2023-03-21T23:51:12.152Z,163.20
2023-03-21T23:53:39.294Z,181.63
2023-03-21T23:56:21.043Z,188.90
2023-03-21T23:58:49.963Z,211.82
